createdAt,value
2022-08-29T00:00:29.856Z,0.88715
2022-08-29T00:05:32.180Z,0.88715
2022-08-29T00:10:34.783Z,0.88715
2022-08-29T00:15:44.430Z,0
2022-08-29T00:20:47.433Z,0.88715
2022-08-29T00:25:49.549Z,0
2022-08-29T00:30:51.305Z,0.88715
2022-08-29T00:35:53.521Z,0
2022-08-29T00:40:55.502Z,0
2022-08-29T00:45:57.380Z,0.88715
2022-08-29T00:50:59.307Z,0
2022-08-29T00:56:01.066Z,0.88715
2022-08-29T01:01:02.656Z,0.88715
2022-08-29T01:06:04.485Z,0
2022-08-29T01:11:06.142Z,0
2022-08-29T01:16:07.710Z,0.88715
2022-08-29T01:21:09.578Z,0.88715
2022-08-29T01:26:11.037Z,0.88715
2022-08-29T01:31:12.801Z,0
2022-08-29T01:36:14.556Z,0.88715
2022-08-29T01:41:18.215Z,0
2022-08-29T01:46:19.830Z,0.88715
2022-08-29T01:51:21.588Z,0.88715
2022-08-29T01:56:23.067Z,0
2022-08-29T02:01:25.386Z,0
2022-08-29T02:06:27.880Z,0
2022-08-29T02:11:29.544Z,0.88715
2022-08-29T02:16:31.157Z,0.88715
2022-08-29T02:21:32.725Z,0.88715
2022-08-29T02:26:34.238Z,0
2022-08-29T02:31:35.895Z,0
2022-08-29T02:36:37.909Z,0.88715
2022-08-29T02:41:44.424Z,0.88715
2022-08-29T02:46:46.217Z,0.88715
2022-08-29T02:51:47.809Z,0.88715
2022-08-29T02:56:49.808Z,0.88715
2022-08-29T03:01:51.954Z,0
2022-08-29T03:06:54.249Z,0
2022-08-29T03:11:56.144Z,0.88715
2022-08-29T03:16:57.702Z,0.88715
2022-08-29T03:21:59.286Z,0.88715
2022-08-29T03:27:00.732Z,0
2022-08-29T03:32:02.379Z,0
2022-08-29T03:37:04.674Z,0.88715
2022-08-29T03:42:06.392Z,0.88715
2022-08-29T03:47:07.869Z,0.88715
2022-08-29T03:52:09.430Z,0.88715
2022-08-29T03:57:11.419Z,0.88715
2022-08-29T04:02:12.873Z,1.16185
2022-08-29T04:07:14.815Z,0.9481
2022-08-29T04:12:16.736Z,2.4888
2022-08-29T04:17:18.615Z,5.93855
2022-08-29T04:22:20.377Z,15.4178
2022-08-29T04:27:22.131Z,23.68005
2022-08-29T04:32:24.034Z,42.39895
2022-08-29T04:37:26.176Z,67.9045
2022-08-29T04:42:27.979Z,95.5493
2022-08-29T04:47:29.919Z,123.1941
2022-08-29T04:52:31.849Z,157.0722
2022-08-29T04:57:33.603Z,184.717
2022-08-29T05:02:35.390Z,223.66655
2022-08-29T05:07:38.157Z,253.4506
2022-08-29T05:12:40.268Z,281.88835
2022-08-29T05:17:42.094Z,313.0187
2022-08-29T05:22:44.679Z,341.4013
2022-08-29T05:27:46.494Z,371.55425
2022-08-29T05:32:48.266Z,389.7198
2022-08-29T05:37:50.232Z,417.78865
2022-08-29T05:42:52.698Z,440.91535
2022-08-29T05:47:54.326Z,474.0195
2022-08-29T05:52:56.506Z,498.45635
2022-08-29T05:57:58.386Z,535.858
2022-08-29T06:03:00.500Z,572.76145
2022-08-29T06:08:02.758Z,613.7038
2022-08-29T06:13:04.521Z,651.8794
2022-08-29T06:18:06.117Z,676.1128
2022-08-29T06:23:07.684Z,704.8643
2022-08-29T06:28:09.492Z,727.3825
2022-08-29T06:33:11.189Z,748.73885
2022-08-29T06:38:14.021Z,770.27965
2022-08-29T06:43:16.291Z,791.82045
2022-08-29T06:48:17.973Z,813.36125
2022-08-29T06:53:31.643Z,835.4554
2022-08-29T06:58:34.650Z,870.3299
2022-08-29T07:03:36.461Z,882.65005
2022-08-29T07:08:43.673Z,910.18455
2022-08-29T07:13:58.296Z,930.87725
2022-08-29T07:19:00.383Z,949.0618
2022-08-29T07:24:01.868Z,976.7256
2022-08-29T07:29:03.601Z,999.92645
2022-08-29T07:34:05.146Z,1024.234
2022-08-29T07:39:07.014Z,1041.5153
2022-08-29T07:44:09.212Z,1067.90695
2022-08-29T07:49:10.988Z,1090.57345
2022-08-29T07:54:12.447Z,1128.344
2022-08-29T07:59:13.903Z,1141.66055
2022-08-29T08:04:15.612Z,1172.40485
2022-08-29T08:09:18.895Z,1192.3236
2022-08-29T08:14:20.354Z,1213.7731
2022-08-29T08:19:22.613Z,1243.1711
2022-08-29T08:24:24.328Z,1276.7183
2022-08-29T08:29:26.300Z,1298.26095
2022-08-29T08:34:28.167Z,1336.0315
2022-08-29T08:39:30.468Z,1361.70435
2022-08-29T08:44:32.995Z,1401.00565
2022-08-29T08:49:37.113Z,1425.5718
2022-08-29T08:54:38.905Z,1458.69495
2022-08-29T08:59:40.869Z,1480.1996
2022-08-29T09:04:42.618Z,1518.2649
2022-08-29T09:09:44.806Z,1535.12215
2022-08-29T09:14:46.592Z,1586.17125
2022-08-29T09:19:48.500Z,1607.288
2022-08-29T09:24:50.449Z,1650.4989
2022-08-29T09:29:52.291Z,1668.2594
2022-08-29T09:35:08.883Z,1744.1314
2022-08-29T09:40:12.755Z,1761.2834
2022-08-29T09:45:18.250Z,1809.80535
2022-08-29T09:50:19.928Z,1826.45915
2022-08-29T09:55:21.850Z,1847.39145
2022-08-29T10:00:23.521Z,1909.56085
2022-08-29T10:05:27.187Z,1907.73535
2022-08-29T10:10:29.216Z,1976.5621
2022-08-29T10:15:49.498Z,2002.45555
2022-08-29T10:20:52.471Z,2050.9775
2022-08-29T10:25:54.247Z,2095.93975
2022-08-29T10:30:55.982Z,2107.2635
2022-08-29T10:35:57.803Z,2159.271
2022-08-29T10:41:00.444Z,2182.1391
2022-08-29T10:46:02.458Z,2211.0199
2022-08-29T10:51:04.337Z,2243.4414
2022-08-29T10:56:07.023Z,2270.3484
2022-08-29T11:01:09.359Z,2338.2149
2022-08-29T11:06:11.135Z,2336.629
2022-08-29T11:11:13.764Z,2407.7966
2022-08-29T11:16:15.731Z,2337.14435
2022-08-29T11:21:17.967Z,2377.9194
2022-08-29T11:26:20.616Z,2449.8248
2022-08-29T11:31:22.444Z,2429.83375
2022-08-29T11:36:24.044Z,2456.59245
2022-08-29T11:41:28.009Z,2403.9213
2022-08-29T11:46:30.470Z,2421.0353
2022-08-29T11:51:32.256Z,2407.12925
2022-08-29T11:56:34.280Z,2440.454
2022-08-29T12:01:36.091Z,2432.30205
2022-08-29T12:06:38.197Z,2449.9504
2022-08-29T12:11:40.719Z,2475.54725
2022-08-29T12:16:42.821Z,2436.00635
2022-08-29T12:21:44.835Z,2420.32995
2022-08-29T12:26:46.822Z,2358.91735
2022-08-29T12:32:02.398Z,2423.2793
2022-08-29T12:37:19.332Z,2388.2755
2022-08-29T12:42:21.501Z,2345.6921
2022-08-29T12:47:23.533Z,2362.97155
2022-08-29T12:52:25.419Z,2328.33665
2022-08-29T12:57:27.141Z,2192.41735
2022-08-29T13:02:28.678Z,2287.5046
2022-08-29T13:07:31.352Z,2267.5497
2022-08-29T13:12:33.999Z,2174.61885
2022-08-29T13:17:36.063Z,2150.3113
2022-08-29T13:22:37.811Z,2163.645
2022-08-29T13:27:39.698Z,2048.45455
2022-08-29T13:32:41.668Z,1966.34925
2022-08-29T13:37:43.410Z,1847.6181
2022-08-29T13:42:45.872Z,1855.60275
2022-08-29T13:47:47.741Z,1722.48635
2022-08-29T13:52:49.825Z,1673.90925
2022-08-29T13:57:51.921Z,1472.55745
2022-08-29T14:02:53.670Z,1428.7019
2022-08-29T14:07:55.328Z,1213.6818
2022-08-29T14:12:57.781Z,1266.53925
2022-08-29T14:17:59.235Z,1169.9194
2022-08-29T14:23:01.208Z,1118.96345
2022-08-29T14:28:03.030Z,1043.9034
2022-08-29T14:33:04.605Z,940.57105
2022-08-29T14:38:10.464Z,849.9639
2022-08-29T14:43:13.847Z,755.7419
2022-08-29T14:48:15.642Z,658.8273
2022-08-29T14:53:17.194Z,559.3494
2022-08-29T14:58:18.798Z,485.0633
2022-08-29T15:03:20.255Z,388.6279
2022-08-29T15:08:22.199Z,299.82725
2022-08-29T15:13:24.595Z,227.0529
2022-08-29T15:19:07.823Z,180.55715
2022-08-29T15:24:29.791Z,135.34375
2022-08-29T15:29:32.137Z,102.00875
2022-08-29T15:34:34.106Z,87.9164
2022-08-29T15:39:35.977Z,74.1758
2022-08-29T15:44:37.966Z,52.8746
2022-08-29T15:49:39.760Z,35.0038
2022-08-29T15:54:41.840Z,19.03265
2022-08-29T15:59:57.599Z,8.8156
2022-08-29T16:04:59.928Z,3.4369
2022-08-29T16:10:03.603Z,1.83695
2022-08-29T16:15:09.809Z,0.47405
2022-08-29T16:20:11.674Z,0
2022-08-29T16:25:13.111Z,0.88715
2022-08-29T16:30:14.669Z,0.88715
2022-08-29T16:35:16.278Z,0.88715
2022-08-29T16:40:17.953Z,0
2022-08-29T16:45:19.937Z,0.88715
2022-08-29T16:50:21.400Z,0
2022-08-29T16:55:22.872Z,0
2022-08-29T17:00:24.724Z,0.88715
2022-08-29T17:05:26.163Z,0
2022-08-29T17:10:27.755Z,0
2022-08-29T17:15:29.540Z,0.88715
2022-08-29T17:20:35.419Z,0.88715
2022-08-29T17:25:38.960Z,0.88715
2022-08-29T17:30:41.007Z,0.88715
2022-08-29T17:35:42.666Z,0.88715
2022-08-29T17:40:44.338Z,0.88715
2022-08-29T17:45:46.668Z,0.88715
2022-08-29T17:50:48.230Z,0
2022-08-29T17:55:50.739Z,0
2022-08-29T18:00:52.846Z,0
2022-08-29T18:05:54.472Z,0.88715
2022-08-29T18:10:56.124Z,0.88715
2022-08-29T18:15:58.030Z,0
2022-08-29T18:20:59.977Z,0
2022-08-29T18:26:01.482Z,0
2022-08-29T18:31:03.605Z,0
2022-08-29T18:36:05.264Z,0
2022-08-29T18:41:07.636Z,0.88715
2022-08-29T18:46:09.796Z,0
2022-08-29T18:51:11.302Z,0.88715
2022-08-29T18:56:12.899Z,0.88715
2022-08-29T19:01:14.945Z,0
2022-08-29T19:06:16.591Z,0
2022-08-29T19:11:18.272Z,0
2022-08-29T19:16:20.574Z,0
2022-08-29T19:21:22.234Z,0
2022-08-29T19:26:27.833Z,0
2022-08-29T19:31:29.550Z,0
2022-08-29T19:36:31.309Z,0.88715
2022-08-29T19:41:32.872Z,0
2022-08-29T19:46:34.917Z,0.88715
2022-08-29T19:51:36.663Z,0.88715
2022-08-29T19:56:38.575Z,0.88715
2022-08-29T20:01:40.195Z,0
2022-08-29T20:06:41.894Z,0
2022-08-29T20:11:46.034Z,0.88715
2022-08-29T20:16:48.118Z,0
2022-08-29T20:21:50.076Z,0.88715
2022-08-29T20:26:51.793Z,0
2022-08-29T20:31:55.213Z,0.88715
2022-08-29T20:36:56.920Z,0
2022-08-29T20:41:58.876Z,0.88715
2022-08-29T20:47:01.112Z,0
2022-08-29T20:52:03.160Z,0
2022-08-29T20:57:05.388Z,0
2022-08-29T21:02:07.112Z,0
2022-08-29T21:07:08.729Z,0.88715
2022-08-29T21:12:10.174Z,0
2022-08-29T21:17:12.890Z,0
2022-08-29T21:22:14.450Z,0.88715
2022-08-29T21:27:16.135Z,0
2022-08-29T21:32:17.794Z,0.88715
2022-08-29T21:37:19.578Z,0.88715
2022-08-29T21:42:21.138Z,0
2022-08-29T21:47:23.141Z,0.88715
2022-08-29T21:52:24.640Z,0
2022-08-29T21:57:26.543Z,0.88715
2022-08-29T22:02:28.527Z,0
2022-08-29T22:07:30.391Z,0.88715
2022-08-29T22:12:32.497Z,0
2022-08-29T22:17:34.477Z,0
2022-08-29T22:22:36.739Z,0
2022-08-29T22:27:38.375Z,0
2022-08-29T22:32:40.288Z,0.88715
2022-08-29T22:37:42.051Z,0.88715
2022-08-29T22:42:43.837Z,0.88715
2022-08-29T22:47:46.389Z,0
2022-08-29T22:52:48.364Z,0.88715
2022-08-29T22:57:50.260Z,0.88715
2022-08-29T23:02:52.116Z,0
2022-08-29T23:07:53.890Z,0.88715
2022-08-29T23:12:55.790Z,0
2022-08-29T23:17:58.267Z,0.88715
2022-08-29T23:23:00.274Z,0
2022-08-29T23:28:02.629Z,0
2022-08-29T23:33:04.571Z,0.88715
2022-08-29T23:38:07.811Z,0.88715
2022-08-29T23:43:09.492Z,0.88715
2022-08-29T23:48:12.224Z,0
2022-08-29T23:53:13.828Z,0.88715
2022-08-29T23:58:15.937Z,0.88715
